createdAt,value
2023-03-02T00:02:22.273Z,24.42
2023-03-02T00:04:48.587Z,21.80
2023-03-02T00:07:14.771Z,25.23
2023-03-02T00:09:40.954Z,26.48
2023-03-02T00:12:07.147Z,29.92
2023-03-02T00:14:33.322Z,28.45
2023-03-02T00:16:59.476Z,26.75
2023-03-02T00:19:25.648Z,28.42
2023-03-02T00:21:53.792Z,23.73
2023-03-02T00:24:19.962Z,23.20
2023-03-02T00:26:46.176Z,30.00
2023-03-02T00:29:12.382Z,27.98
2023-03-02T00:31:38.600Z,25.40
2023-03-02T00:34:04.812Z,26.75
2023-03-02T00:36:30.991Z,26.20
2023-03-02T00:38:57.152Z,28.75
2023-03-02T00:41:23.269Z,24.55
2023-03-02T00:43:49.448Z,24.17
2023-03-02T00:46:15.684Z,28.92
2023-03-02T00:48:41.924Z,27.65
2023-03-02T00:51:08.098Z,29.05
2023-03-02T00:53:34.259Z,28.73
2023-03-02T00:56:00.450Z,31.13
2023-03-02T00:58:26.663Z,31.88
2023-03-02T01:00:52.802Z,26.73
2023-03-02T01:03:19.011Z,29.67
2023-03-02T01:05:45.252Z,28.10
2023-03-02T01:08:11.426Z,25.17
2023-03-02T01:10:37.600Z,27.05
2023-03-02T01:13:03.784Z,33.50
2023-03-02T01:15:29.955Z,26.45
2023-03-02T01:17:56.135Z,28.83
2023-03-02T01:20:22.285Z,25.67
2023-03-02T01:22:48.480Z,28.35
2023-03-02T01:25:14.649Z,27.27
2023-03-02T01:27:40.784Z,25.63
2023-03-02T01:30:06.952Z,25.42
2023-03-02T01:32:33.200Z,31.40
2023-03-02T01:35:01.252Z,28.83
2023-03-02T01:37:27.396Z,27.45
2023-03-02T01:39:53.517Z,29.85
2023-03-02T01:42:19.673Z,24.67
2023-03-02T01:44:45.856Z,26.63
2023-03-02T01:47:12.058Z,26.75
2023-03-02T01:49:38.181Z,28.70
2023-03-02T01:52:04.392Z,26.92
2023-03-02T01:54:30.579Z,31.15
2023-03-02T01:56:56.743Z,31.33
2023-03-02T01:59:22.886Z,25.08
2023-03-02T02:01:48.999Z,29.58
2023-03-02T02:04:15.170Z,27.30
2023-03-02T02:06:41.386Z,27.67
2023-03-02T02:09:07.500Z,30.23
2023-03-02T02:11:33.647Z,30.40
2023-03-02T02:13:59.836Z,29.80
2023-03-02T02:16:26.072Z,26.88
2023-03-02T02:18:52.259Z,28.75
2023-03-02T02:21:18.499Z,26.58
2023-03-02T02:23:44.713Z,26.80
2023-03-02T02:26:10.867Z,24.48
2023-03-02T02:28:36.982Z,32.13
2023-03-02T02:31:03.093Z,28.33
2023-03-02T02:33:29.267Z,26.35
2023-03-02T02:35:55.443Z,29.00
2023-03-02T02:38:21.627Z,28.08
2023-03-02T02:40:47.843Z,29.23
2023-03-02T02:43:14.018Z,31.65
2023-03-02T02:45:40.208Z,25.50
2023-03-02T02:48:06.428Z,29.40
2023-03-02T02:50:32.619Z,27.90
2023-03-02T02:52:58.813Z,28.00
2023-03-02T02:55:24.956Z,31.02
2023-03-02T02:57:51.052Z,25.13
2023-03-02T03:00:17.259Z,28.73
2023-03-02T03:02:43.694Z,26.88
2023-03-02T03:05:09.903Z,30.52
2023-03-02T03:07:36.047Z,31.13
2023-03-02T03:10:02.300Z,31.65
2023-03-02T03:12:28.574Z,31.90
2023-03-02T03:14:54.760Z,31.00
2023-03-02T03:17:20.947Z,33.40
2023-03-02T03:19:47.113Z,34.22
2023-03-02T03:22:13.320Z,35.80
2023-03-02T03:24:39.452Z,31.92
2023-03-02T03:27:05.695Z,31.45
2023-03-02T03:29:31.842Z,32.17
2023-03-02T03:31:58.056Z,30.40
2023-03-02T03:34:24.249Z,31.48
2023-03-02T03:36:50.450Z,35.13
2023-03-02T03:39:16.573Z,28.65
2023-03-02T03:41:42.774Z,29.77
2023-03-02T03:44:08.945Z,32.03
2023-03-02T03:46:35.540Z,31.05
2023-03-02T03:49:01.907Z,36.13
2023-03-02T03:51:28.055Z,22.27
2023-03-02T03:53:54.220Z,28.42
2023-03-02T03:56:20.374Z,29.55
2023-03-02T03:58:46.562Z,24.10
2023-03-02T04:01:12.714Z,26.98
2023-03-02T04:03:38.927Z,31.40
2023-03-02T04:06:05.166Z,24.70
2023-03-02T04:08:31.367Z,30.67
2023-03-02T04:10:57.502Z,24.17
2023-03-02T04:13:23.675Z,25.77
2023-03-02T04:15:49.934Z,29.33
2023-03-02T04:18:16.097Z,24.65
2023-03-02T04:20:42.246Z,32.90
2023-03-02T04:23:08.366Z,31.38
2023-03-02T04:25:34.533Z,26.90
2023-03-02T04:28:00.713Z,23.00
2023-03-02T04:30:26.868Z,34.25
2023-03-02T04:32:53.052Z,28.65
2023-03-02T04:35:19.322Z,31.15
2023-03-02T04:37:45.471Z,30.10
2023-03-02T04:40:11.662Z,30.38
2023-03-02T04:42:37.860Z,25.58
2023-03-02T04:45:04.078Z,35.22
2023-03-02T04:47:30.200Z,26.73
2023-03-02T04:49:56.356Z,29.75
2023-03-02T04:52:22.532Z,29.85
2023-03-02T04:54:48.686Z,27.75
2023-03-02T04:57:14.929Z,23.42
2023-03-02T04:59:41.106Z,32.17
2023-03-02T05:02:07.353Z,28.73
2023-03-02T05:04:33.614Z,27.08
2023-03-02T05:06:59.811Z,26.63
2023-03-02T05:09:25.985Z,28.08
2023-03-02T05:11:52.132Z,24.63
2023-03-02T05:14:18.290Z,25.63
2023-03-02T05:16:44.420Z,33.83
2023-03-02T05:19:10.598Z,29.08
2023-03-02T05:21:36.768Z,20.13
2023-03-02T05:24:02.923Z,21.98
2023-03-02T05:26:29.058Z,25.23
2023-03-02T05:28:55.284Z,22.75
2023-03-02T05:31:21.506Z,28.20
2023-03-02T05:33:47.727Z,23.67
2023-03-02T05:36:13.926Z,26.88
2023-03-02T05:38:40.115Z,28.15
2023-03-02T05:41:06.387Z,29.02
2023-03-02T05:43:32.585Z,30.20
2023-03-02T05:45:58.700Z,18.40
2023-03-02T05:48:24.870Z,26.90
2023-03-02T05:50:51.028Z,30.35
2023-03-02T05:53:17.238Z,30.50
2023-03-02T05:55:43.397Z,28.35
2023-03-02T05:58:09.546Z,23.70
2023-03-02T06:00:38.504Z,25.67
2023-03-02T06:03:07.531Z,24.60
2023-03-02T06:05:33.746Z,28.33
2023-03-02T06:07:59.945Z,23.27
2023-03-02T06:10:26.067Z,27.25
2023-03-02T06:12:52.282Z,25.75
2023-03-02T06:15:18.457Z,26.70
2023-03-02T06:17:44.579Z,28.27
2023-03-02T06:20:10.796Z,24.00
2023-03-02T06:22:37.029Z,26.27
2023-03-02T06:25:03.144Z,28.10
2023-03-02T06:27:29.538Z,26.38
2023-03-02T06:29:55.749Z,27.90
2023-03-02T06:32:33.067Z,27.55
2023-03-02T06:38:24.881Z,27.63
2023-03-02T06:43:25.341Z,25.30
2023-03-02T06:48:36.447Z,25.33
2023-03-02T06:51:02.644Z,26.73
2023-03-02T06:53:28.795Z,20.63
2023-03-02T06:55:54.914Z,29.52
2023-03-02T06:58:21.093Z,28.05
2023-03-02T07:00:47.305Z,26.40
2023-03-02T07:03:13.526Z,24.80
2023-03-02T07:05:39.735Z,24.85
2023-03-02T07:08:07.732Z,23.38
2023-03-02T07:10:33.969Z,22.92
2023-03-02T07:13:00.287Z,27.40
2023-03-02T07:15:26.458Z,28.23
2023-03-02T07:17:52.667Z,23.55
2023-03-02T07:20:18.844Z,25.92
2023-03-02T07:22:45.057Z,22.30
2023-03-02T07:25:11.538Z,27.52
2023-03-02T07:27:37.722Z,25.08
2023-03-02T07:30:03.839Z,28.05
2023-03-02T07:32:30.000Z,26.10
2023-03-02T07:34:56.164Z,25.73
2023-03-02T07:37:22.342Z,23.45
2023-03-02T07:42:28.893Z,28.35
2023-03-02T07:44:55.063Z,26.30
2023-03-02T07:47:21.187Z,22.23
2023-03-02T07:49:47.358Z,26.55
2023-03-02T07:52:13.527Z,24.35
2023-03-02T07:54:39.717Z,24.33
2023-03-02T07:57:05.864Z,27.02
2023-03-02T07:59:32.010Z,23.92
2023-03-02T08:01:58.214Z,22.38
2023-03-02T08:04:24.474Z,32.25
2023-03-02T08:06:50.621Z,25.60
2023-03-02T08:09:17.068Z,23.83
2023-03-02T08:11:43.383Z,21.52
2023-03-02T08:14:09.532Z,23.92
2023-03-02T08:16:35.869Z,26.27
2023-03-02T08:19:02.273Z,19.90
2023-03-02T08:21:28.479Z,24.55
2023-03-02T08:23:54.705Z,23.55
2023-03-02T08:26:20.866Z,20.27
2023-03-02T08:28:47.061Z,25.85
2023-03-02T08:31:13.308Z,23.52
2023-03-02T08:33:42.192Z,24.67
2023-03-02T08:36:08.485Z,23.42
2023-03-02T08:38:34.699Z,26.60
2023-03-02T08:41:00.888Z,21.08
2023-03-02T08:43:27.106Z,24.58
2023-03-02T08:45:53.277Z,25.33
2023-03-02T08:48:19.411Z,22.95
2023-03-02T08:50:45.588Z,28.60
2023-03-02T08:53:11.771Z,22.98
2023-03-02T08:55:37.948Z,24.90
2023-03-02T08:58:04.176Z,22.25
2023-03-02T09:00:32.328Z,21.48
2023-03-02T09:02:59.666Z,24.15
2023-03-02T09:05:25.854Z,23.77
2023-03-02T09:07:51.997Z,25.38
2023-03-02T09:10:18.157Z,22.58
2023-03-02T09:12:44.293Z,21.35
2023-03-02T09:15:13.350Z,24.00
2023-03-02T09:17:42.351Z,23.25
2023-03-02T09:20:08.572Z,22.17
2023-03-02T09:22:34.921Z,23.25
2023-03-02T09:25:01.165Z,21.23
2023-03-02T09:27:27.385Z,22.80
2023-03-02T09:29:53.557Z,21.95
2023-03-02T09:32:19.893Z,19.80
2023-03-02T09:34:46.112Z,20.30
2023-03-02T09:37:12.292Z,23.23
2023-03-02T09:39:40.671Z,20.48
2023-03-02T09:42:06.881Z,23.25
2023-03-02T09:44:33.040Z,20.90
2023-03-02T09:46:59.217Z,20.08
2023-03-02T09:49:25.452Z,22.38
2023-03-02T09:51:51.615Z,20.45
2023-03-02T09:54:20.523Z,22.52
2023-03-02T09:56:46.841Z,22.23
2023-03-02T09:59:12.959Z,23.67
2023-03-02T10:01:39.163Z,22.48
2023-03-02T10:04:05.356Z,20.45
2023-03-02T10:06:31.908Z,22.35
2023-03-02T10:08:58.223Z,21.42
2023-03-02T10:11:24.351Z,20.92
2023-03-02T10:13:50.530Z,23.50
2023-03-02T10:16:16.778Z,21.42
2023-03-02T10:18:43.155Z,21.45
2023-03-02T10:21:09.359Z,20.55
2023-03-02T10:23:35.569Z,18.50
2023-03-02T10:26:01.748Z,18.80
2023-03-02T10:28:27.894Z,21.38
2023-03-02T10:30:55.599Z,24.00
2023-03-02T10:33:21.789Z,20.70
2023-03-02T10:35:48.916Z,20.98
2023-03-02T10:38:15.106Z,19.48
2023-03-02T10:40:41.313Z,21.25
2023-03-02T10:43:08.713Z,21.50
2023-03-02T10:45:34.912Z,21.52
2023-03-02T10:48:01.119Z,21.85
2023-03-02T10:50:30.104Z,22.45
2023-03-02T10:53:01.080Z,18.20
2023-03-02T10:55:28.154Z,18.00
2023-03-02T10:57:54.401Z,20.27
2023-03-02T11:00:20.537Z,20.55
2023-03-02T11:02:46.666Z,18.85
2023-03-02T11:05:12.814Z,21.38
2023-03-02T11:07:39.015Z,17.67
2023-03-02T11:10:05.216Z,18.60
2023-03-02T11:12:31.395Z,20.42
2023-03-02T11:14:57.598Z,19.95
2023-03-02T11:17:23.748Z,21.95
2023-03-02T11:19:49.931Z,19.08
2023-03-02T11:22:17.328Z,19.25
2023-03-02T11:24:43.498Z,18.42
2023-03-02T11:27:09.701Z,18.38
2023-03-02T11:29:35.878Z,21.92
2023-03-02T11:32:03.028Z,20.75
2023-03-02T11:34:29.261Z,17.80
2023-03-02T11:36:55.515Z,21.85
2023-03-02T11:39:21.731Z,19.00
2023-03-02T11:41:50.774Z,19.23
2023-03-02T11:44:16.975Z,18.92
2023-03-02T11:46:43.228Z,18.08
2023-03-02T11:49:09.367Z,20.83
2023-03-02T11:51:36.105Z,19.80
2023-03-02T11:54:02.463Z,18.38
2023-03-02T11:56:28.672Z,18.30
2023-03-02T11:58:54.830Z,18.90
2023-03-02T12:01:20.988Z,19.58
2023-03-02T12:03:47.145Z,18.05
2023-03-02T12:06:13.369Z,18.85
2023-03-02T12:08:39.485Z,17.80
2023-03-02T12:11:05.655Z,20.60
2023-03-02T12:13:31.832Z,21.17
2023-03-02T12:15:59.187Z,20.02
2023-03-02T12:18:25.326Z,18.80
2023-03-02T12:20:51.475Z,20.60
2023-03-02T12:23:17.674Z,20.38
2023-03-02T12:25:43.865Z,24.27
2023-03-02T12:28:10.040Z,19.23
2023-03-02T12:30:36.206Z,16.80
2023-03-02T12:33:02.387Z,15.07
2023-03-02T12:35:28.630Z,18.27
2023-03-02T12:37:54.906Z,23.58
2023-03-02T12:40:21.075Z,22.40
2023-03-02T12:42:48.782Z,18.50
2023-03-02T12:45:15.095Z,18.75
2023-03-02T12:47:41.470Z,19.85
2023-03-02T12:50:07.748Z,19.88
2023-03-02T12:52:34.004Z,18.05
2023-03-02T12:55:00.348Z,19.92
2023-03-02T12:57:26.507Z,21.40
2023-03-02T12:59:52.672Z,17.42
2023-03-02T13:02:18.915Z,20.02
2023-03-02T13:04:47.016Z,27.40
2023-03-02T13:07:19.561Z,22.02
2023-03-02T13:09:56.164Z,20.75
2023-03-02T13:12:27.934Z,20.27
2023-03-02T13:14:54.101Z,20.52
2023-03-02T13:17:20.241Z,24.90
2023-03-02T13:19:46.463Z,21.02
2023-03-02T13:22:12.666Z,24.90
2023-03-02T13:24:38.916Z,25.05
2023-03-02T13:27:05.114Z,18.65
2023-03-02T13:29:31.313Z,17.90
2023-03-02T13:31:57.544Z,18.90
2023-03-02T13:34:23.771Z,19.65
2023-03-02T13:36:50.001Z,19.30
2023-03-02T13:39:16.274Z,17.10
2023-03-02T13:41:42.455Z,22.30
2023-03-02T13:44:08.636Z,19.73
2023-03-02T13:46:39.316Z,22.55
2023-03-02T13:49:10.747Z,17.52
2023-03-02T13:51:37.566Z,16.15
2023-03-02T13:54:03.699Z,20.45
2023-03-02T13:56:29.907Z,22.42
2023-03-02T13:58:56.121Z,19.23
2023-03-02T14:01:22.325Z,21.90
2023-03-02T14:03:48.533Z,17.17
2023-03-02T14:06:14.729Z,19.08
2023-03-02T14:08:40.916Z,24.65
2023-03-02T14:11:07.071Z,21.23
2023-03-02T14:13:33.312Z,20.75
2023-03-02T14:15:59.515Z,24.55
2023-03-02T14:18:25.896Z,18.25
2023-03-02T14:20:52.083Z,21.52
2023-03-02T14:23:18.318Z,20.52
2023-03-02T14:25:44.545Z,17.42
2023-03-02T14:28:10.758Z,19.83
2023-03-02T14:30:39.701Z,21.70
2023-03-02T14:33:05.849Z,18.63
2023-03-02T14:35:33.313Z,16.50
2023-03-02T14:37:59.512Z,17.52
2023-03-02T14:40:25.742Z,20.65
2023-03-02T14:42:52.017Z,20.83
2023-03-02T14:45:18.192Z,18.17
2023-03-02T14:47:44.387Z,16.80
2023-03-02T14:50:10.609Z,14.90
2023-03-02T14:52:36.837Z,18.60
2023-03-02T14:55:03.069Z,18.73
2023-03-02T14:57:29.286Z,20.42
2023-03-02T14:59:55.527Z,22.45
2023-03-02T15:02:31.169Z,19.27
2023-03-02T15:04:57.741Z,17.63
2023-03-02T15:07:23.989Z,15.07
2023-03-02T15:09:50.162Z,19.63
2023-03-02T15:12:16.360Z,17.15
2023-03-02T15:14:42.506Z,18.08
2023-03-02T15:17:08.712Z,18.67
2023-03-02T15:19:34.884Z,19.67
2023-03-02T15:27:46.663Z,17.10
2023-03-02T15:30:20.019Z,17.75
2023-03-02T15:41:00.742Z,20.55
2023-03-02T15:46:16.980Z,15.68
2023-03-02T15:48:43.143Z,19.60
2023-03-02T15:51:09.289Z,18.38
2023-03-02T16:01:58.968Z,18.47
2023-03-02T16:04:25.164Z,12.30
2023-03-02T16:06:51.369Z,16.40
2023-03-02T16:09:17.551Z,15.93
2023-03-02T16:11:43.737Z,21.00
2023-03-02T16:14:09.906Z,16.83
2023-03-02T16:16:36.125Z,25.63
2023-03-02T16:19:02.325Z,14.98
2023-03-02T16:21:28.597Z,22.13
2023-03-02T16:23:55.107Z,17.83
2023-03-02T16:43:11.422Z,18.30
2023-03-02T16:45:37.623Z,22.17
2023-03-02T16:48:19.476Z,21.20
2023-03-02T16:50:45.661Z,15.55
2023-03-02T16:53:11.896Z,19.92
2023-03-02T17:06:43.534Z,22.65
2023-03-02T17:09:13.450Z,16.98
2023-03-02T17:14:29.927Z,15.13
2023-03-02T17:16:56.139Z,18.92
2023-03-02T17:24:58.048Z,20.15
2023-03-02T17:30:09.052Z,23.92
2023-03-02T17:32:35.249Z,13.90
2023-03-02T17:35:01.390Z,22.50
2023-03-02T17:37:27.557Z,21.77
2023-03-02T17:39:53.788Z,16.58
2023-03-02T17:42:19.930Z,17.50
2023-03-02T17:47:38.063Z,21.43
2023-03-02T17:58:35.972Z,23.55
2023-03-02T18:01:15.262Z,24.33
2023-03-02T18:03:41.642Z,30.90
2023-03-02T18:06:10.692Z,34.70
2023-03-02T18:08:36.998Z,35.72
2023-03-02T18:13:46.401Z,19.00
2023-03-02T18:19:01.956Z,19.42
2023-03-02T18:21:28.128Z,24.50
2023-03-02T18:23:54.251Z,24.15
2023-03-02T18:32:03.354Z,18.65
2023-03-02T18:34:31.434Z,18.58
2023-03-02T18:36:57.579Z,19.65
2023-03-02T18:39:23.735Z,18.52
2023-03-02T18:41:49.914Z,23.35
2023-03-02T18:44:16.100Z,23.65
2023-03-02T18:46:43.108Z,17.17
2023-03-02T18:49:09.340Z,21.85
2023-03-02T18:51:35.515Z,17.02
2023-03-02T18:54:01.684Z,23.48
2023-03-02T18:56:27.864Z,22.77
2023-03-02T18:58:54.067Z,23.63
2023-03-02T19:01:20.296Z,21.42
2023-03-02T19:03:46.621Z,27.25
2023-03-02T19:06:12.851Z,26.98
2023-03-02T19:08:59.673Z,25.52
2023-03-02T19:14:15.746Z,26.55
2023-03-02T19:16:41.944Z,29.20
2023-03-02T19:19:08.196Z,25.85
2023-03-02T19:21:34.344Z,30.65
2023-03-02T19:24:00.490Z,32.40
2023-03-02T19:26:29.472Z,27.42
2023-03-02T19:28:55.701Z,23.42
2023-03-02T19:31:22.021Z,34.95
2023-03-02T19:33:48.268Z,27.77
2023-03-02T19:36:14.475Z,28.58
2023-03-02T19:41:31.240Z,25.80
2023-03-02T19:43:57.391Z,34.95
2023-03-02T19:46:23.566Z,35.97
2023-03-02T19:48:49.707Z,47.13
2023-03-02T19:51:15.914Z,41.33
2023-03-02T19:53:42.119Z,33.90
2023-03-02T19:56:08.283Z,36.65
2023-03-02T19:58:34.476Z,29.83
2023-03-02T20:01:00.632Z,42.58
2023-03-02T20:03:26.810Z,35.72
2023-03-02T20:05:52.973Z,37.42
2023-03-02T20:08:19.177Z,34.60
2023-03-02T20:10:45.318Z,34.03
2023-03-02T20:13:11.504Z,35.65
2023-03-02T20:15:53.139Z,38.38
2023-03-02T20:20:45.455Z,31.80
2023-03-02T20:23:11.653Z,33.75
2023-03-02T20:25:37.820Z,25.52
2023-03-02T20:28:03.934Z,33.70
2023-03-02T20:30:30.244Z,35.25
2023-03-02T20:32:56.509Z,35.78
2023-03-02T20:35:22.808Z,39.95
2023-03-02T20:37:48.979Z,44.13
2023-03-02T20:40:16.538Z,38.70
2023-03-02T20:42:42.715Z,41.15
2023-03-02T20:45:08.885Z,34.70
2023-03-02T20:47:35.089Z,38.22
2023-03-02T20:50:01.269Z,43.47
2023-03-02T20:52:27.389Z,48.20
2023-03-02T20:54:53.573Z,51.58
2023-03-02T20:57:19.823Z,38.67
2023-03-02T20:59:46.228Z,52.00
2023-03-02T21:07:47.151Z,49.90
2023-03-02T21:10:17.199Z,45.25
2023-03-02T21:15:27.528Z,37.53
2023-03-02T21:17:53.730Z,39.40
2023-03-02T21:20:19.927Z,35.58
2023-03-02T21:22:46.056Z,40.30
2023-03-02T21:25:12.239Z,41.25
2023-03-02T21:27:38.402Z,33.10
2023-03-02T21:30:04.587Z,36.30
2023-03-02T21:32:30.791Z,31.80
2023-03-02T21:35:01.630Z,38.85
2023-03-02T21:37:27.867Z,36.92
2023-03-02T21:39:54.021Z,36.88
2023-03-02T21:42:20.180Z,34.53
2023-03-02T21:44:46.310Z,39.55
2023-03-02T21:47:12.496Z,38.10
2023-03-02T21:49:38.676Z,39.28
2023-03-02T21:52:04.832Z,34.00
2023-03-02T21:54:30.973Z,33.38
2023-03-02T21:56:57.136Z,40.35
2023-03-02T21:59:23.306Z,37.05
2023-03-02T22:01:49.478Z,39.35
2023-03-02T22:04:15.716Z,41.40
2023-03-02T22:06:41.893Z,45.67
2023-03-02T22:09:08.033Z,36.70
2023-03-02T22:11:34.283Z,35.13
2023-03-02T22:14:00.514Z,42.47
2023-03-02T22:16:27.912Z,34.40
2023-03-02T22:18:54.115Z,34.20
2023-03-02T22:21:20.299Z,31.88
2023-03-02T22:23:46.492Z,38.13
2023-03-02T22:26:12.624Z,32.90
2023-03-02T22:28:40.760Z,37.78
2023-03-02T22:31:07.031Z,36.88
2023-03-02T22:33:36.055Z,39.58
2023-03-02T22:36:03.512Z,39.15
2023-03-02T22:38:29.807Z,43.58
2023-03-02T22:40:55.972Z,41.10
2023-03-02T22:43:22.175Z,43.20
2023-03-02T22:45:48.400Z,45.28
2023-03-02T22:48:14.758Z,38.28
2023-03-02T22:50:41.006Z,37.35
2023-03-02T22:53:07.443Z,40.80
2023-03-02T22:55:33.700Z,34.88
2023-03-02T22:58:00.030Z,42.55
2023-03-02T23:00:27.454Z,38.40
2023-03-02T23:02:53.705Z,43.95
2023-03-02T23:05:19.957Z,40.83
2023-03-02T23:07:46.148Z,39.47
2023-03-02T23:10:12.315Z,44.08
2023-03-02T23:12:38.550Z,37.95
2023-03-02T23:15:04.905Z,39.45
2023-03-02T23:17:31.103Z,37.22
2023-03-02T23:19:57.278Z,41.15
2023-03-02T23:22:23.454Z,35.50
2023-03-02T23:24:51.451Z,37.00
2023-03-02T23:27:17.683Z,41.53
2023-03-02T23:29:43.930Z,36.10
2023-03-02T23:32:14.396Z,38.10
2023-03-02T23:34:40.663Z,41.50
2023-03-02T23:37:06.925Z,35.10
2023-03-02T23:39:33.152Z,35.90
2023-03-02T23:42:00.663Z,37.88
2023-03-02T23:44:26.970Z,38.40
2023-03-02T23:46:53.201Z,35.63
2023-03-02T23:49:20.788Z,41.42
2023-03-02T23:51:46.966Z,39.05
2023-03-02T23:54:14.357Z,34.03
2023-03-02T23:56:40.571Z,40.60
2023-03-02T23:59:06.757Z,35.47
